createdAt,value
2022-08-02T00:00:45.158Z,1.90
2022-08-02T00:03:13.386Z,2.33
2022-08-02T00:05:41.824Z,2.57
2022-08-02T00:08:22.659Z,2.23
2022-08-02T00:10:51.244Z,2.53
2022-08-02T00:13:19.837Z,2.50
2022-08-02T00:15:48.210Z,2.53
2022-08-02T00:18:16.613Z,2.77
2022-08-02T00:20:44.988Z,2.67
2022-08-02T00:23:13.562Z,2.27
2022-08-02T00:25:55.083Z,2.13
2022-08-02T00:28:27.822Z,2.40
2022-08-02T00:30:57.500Z,2.30
2022-08-02T00:34:27.024Z,2.30
2022-08-02T00:36:14.387Z,1.87
2022-08-02T00:38:43.078Z,2.27
2022-08-02T00:41:20.049Z,1.87
2022-08-02T00:43:50.651Z,1.63
2022-08-02T00:46:21.116Z,2.10
2022-08-02T00:48:50.154Z,2.13
2022-08-02T00:51:19.071Z,2.30
2022-08-02T00:53:47.407Z,2.07
2022-08-02T00:56:17.162Z,2.20
2022-08-02T00:58:45.537Z,1.83
2022-08-02T01:01:13.972Z,2.20
2022-08-02T01:03:42.452Z,2.10
2022-08-02T01:06:11.384Z,2.40
2022-08-02T01:08:40.350Z,2.97
2022-08-02T01:11:09.291Z,2.20
2022-08-02T01:13:39.047Z,2.73
2022-08-02T01:16:16.340Z,2.40
2022-08-02T01:18:53.571Z,2.23
2022-08-02T01:21:42.571Z,2.27
2022-08-02T01:24:26.065Z,2.30
2022-08-02T01:27:01.917Z,2.50
2022-08-02T01:29:36.443Z,2.37
2022-08-02T01:32:11.290Z,2.20
2022-08-02T01:34:45.183Z,2.23
2022-08-02T01:37:20.582Z,2.33
2022-08-02T01:39:55.821Z,2.77
2022-08-02T01:42:26.770Z,2.20
2022-08-02T01:44:58.367Z,2.27
2022-08-02T01:47:32.901Z,2.40
2022-08-02T01:50:02.616Z,2.10
2022-08-02T01:52:34.743Z,1.97
2022-08-02T01:55:09.790Z,2.40
2022-08-02T01:57:42.153Z,2.57
2022-08-02T02:00:13.729Z,1.80
2022-08-02T02:02:47.496Z,2.37
2022-08-02T02:05:20.963Z,2.47
2022-08-02T02:07:53.663Z,1.90
2022-08-02T02:10:27.765Z,2.23
2022-08-02T02:12:58.153Z,2.60
2022-08-02T02:15:29.442Z,2.20
2022-08-02T02:18:13.051Z,2.10
2022-08-02T02:20:43.680Z,2.57
2022-08-02T02:23:13.319Z,2.13
2022-08-02T02:25:46.587Z,3.07
2022-08-02T02:28:24.206Z,2.33
2022-08-02T02:30:59.578Z,2.80
2022-08-02T02:33:29.687Z,3.00
2022-08-02T02:36:00.753Z,2.90
2022-08-02T02:38:33.153Z,2.37
2022-08-02T02:41:04.665Z,2.90
2022-08-02T02:43:35.449Z,2.60
2022-08-02T02:46:07.510Z,2.83
2022-08-02T02:48:36.628Z,2.53
2022-08-02T02:51:08.282Z,2.40
2022-08-02T02:54:30.450Z,2.67
2022-08-02T02:56:33.501Z,2.63
2022-08-02T02:59:02.397Z,2.10
2022-08-02T03:01:55.581Z,2.10
2022-08-02T03:04:22.513Z,2.80
2022-08-02T03:06:50.961Z,2.30
2022-08-02T03:09:19.318Z,2.30
2022-08-02T03:11:47.948Z,2.37
2022-08-02T03:14:16.617Z,2.60
2022-08-02T03:16:48.685Z,2.63
2022-08-02T03:19:17.885Z,2.20
2022-08-02T03:21:47.826Z,2.33
2022-08-02T03:24:27.715Z,2.17
2022-08-02T03:26:56.788Z,2.30
2022-08-02T03:29:25.113Z,2.37
2022-08-02T03:31:56.587Z,2.37
2022-08-02T03:34:25.273Z,2.30
2022-08-02T03:36:57.400Z,2.20
2022-08-02T03:39:27.609Z,2.30
2022-08-02T03:41:56.734Z,2.30
2022-08-02T03:44:26.786Z,2.10
2022-08-02T03:46:56.677Z,2.10
2022-08-02T03:49:25.563Z,2.03
2022-08-02T03:51:54.970Z,1.87
2022-08-02T03:54:32.968Z,2.00
2022-08-02T03:57:12.737Z,1.90
2022-08-02T03:59:46.011Z,1.90
2022-08-02T04:02:15.930Z,2.13
2022-08-02T04:04:44.262Z,1.70
2022-08-02T04:07:12.590Z,1.83
2022-08-02T04:09:41.018Z,2.00
2022-08-02T04:12:10.127Z,1.83
2022-08-02T04:14:38.704Z,1.80
2022-08-02T04:17:10.524Z,1.80
2022-08-02T04:19:45.636Z,2.20
2022-08-02T04:22:22.915Z,1.90
2022-08-02T04:24:53.291Z,1.83
2022-08-02T04:27:50.573Z,2.30
2022-08-02T04:30:14.192Z,2.23
2022-08-02T04:32:42.881Z,2.07
2022-08-02T04:35:20.517Z,2.10
2022-08-02T04:38:09.449Z,1.80
2022-08-02T04:40:38.720Z,1.60
2022-08-02T04:43:07.194Z,1.93
2022-08-02T04:45:36.945Z,1.60
2022-08-02T04:48:06.578Z,1.67
2022-08-02T04:50:36.533Z,1.63
2022-08-02T04:53:05.115Z,1.70
2022-08-02T04:55:33.736Z,1.53
2022-08-02T04:58:04.253Z,1.70
2022-08-02T05:00:38.156Z,1.50
2022-08-02T05:03:06.634Z,1.67
2022-08-02T05:05:36.435Z,1.20
2022-08-02T05:08:05.225Z,1.37
2022-08-02T05:10:33.579Z,1.43
2022-08-02T05:13:01.878Z,1.60
2022-08-02T05:15:33.229Z,1.30
2022-08-02T05:18:01.921Z,1.50
2022-08-02T05:20:30.239Z,1.50
2022-08-02T05:22:59.931Z,1.50
2022-08-02T05:25:28.496Z,1.80
2022-08-02T05:27:56.800Z,1.63
2022-08-02T05:30:25.355Z,1.53
2022-08-02T05:32:53.703Z,1.63
2022-08-02T05:35:24.905Z,1.63
2022-08-02T05:37:53.938Z,1.53
2022-08-02T05:40:25.670Z,1.43
2022-08-02T05:42:54.582Z,1.60
2022-08-02T05:45:22.937Z,1.57
2022-08-02T05:47:51.338Z,1.50
2022-08-02T05:50:20.116Z,1.10
2022-08-02T05:52:53.025Z,1.40
2022-08-02T05:55:31.870Z,1.50
2022-08-02T05:58:08.135Z,1.50
2022-08-02T06:00:36.752Z,1.80
2022-08-02T06:03:17.757Z,1.80
2022-08-02T06:05:54.819Z,1.50
2022-08-02T06:08:26.776Z,1.50
2022-08-02T06:11:02.682Z,1.37
2022-08-02T06:13:31.379Z,1.23
2022-08-02T06:16:00.826Z,1.57
2022-08-02T06:18:30.011Z,1.27
2022-08-02T06:22:30.597Z,1.30
2022-08-02T06:23:58.602Z,1.33
2022-08-02T06:26:29.874Z,1.17
2022-08-02T06:28:59.775Z,1.50
2022-08-02T06:31:28.098Z,1.27
2022-08-02T06:33:57.315Z,1.40
2022-08-02T06:36:43.586Z,1.30
2022-08-02T06:39:20.761Z,1.50
2022-08-02T06:41:51.685Z,1.27
2022-08-02T06:44:46.025Z,1.30
2022-08-02T06:47:10.959Z,1.30
2022-08-02T06:49:51.773Z,1.63
2022-08-02T06:52:28.291Z,1.50
2022-08-02T06:54:58.574Z,1.40
2022-08-02T06:57:28.681Z,1.40
2022-08-02T06:59:57.257Z,1.67
2022-08-02T07:02:26.077Z,1.30
2022-08-02T07:04:54.400Z,1.40
2022-08-02T07:07:22.770Z,1.60
2022-08-02T07:09:57.709Z,1.30
2022-08-02T07:12:32.446Z,1.20
2022-08-02T07:15:02.376Z,1.40
2022-08-02T07:17:31.531Z,1.37
2022-08-02T07:20:00.212Z,1.40
2022-08-02T07:22:29.438Z,1.40
2022-08-02T07:25:02.982Z,1.43
2022-08-02T07:27:32.883Z,1.70
2022-08-02T07:30:01.583Z,1.80
2022-08-02T07:32:32.981Z,1.57
2022-08-02T07:35:06.488Z,1.67
2022-08-02T07:37:53.551Z,1.90
2022-08-02T07:40:25.381Z,1.50
2022-08-02T07:43:03.016Z,1.40
2022-08-02T07:45:36.067Z,1.40
2022-08-02T07:48:21.867Z,1.63
2022-08-02T07:50:50.419Z,1.70
2022-08-02T07:53:18.970Z,1.90
2022-08-02T07:55:47.257Z,1.43
2022-08-02T07:58:17.116Z,1.60
2022-08-02T08:00:45.970Z,1.73
2022-08-02T08:03:14.536Z,1.40
2022-08-02T08:05:43.140Z,1.60
2022-08-02T08:08:17.200Z,1.70
2022-08-02T08:10:46.432Z,1.57
2022-08-02T08:13:16.838Z,1.63
2022-08-02T08:15:51.985Z,1.40
2022-08-02T08:18:21.764Z,1.40
2022-08-02T08:20:50.202Z,1.33
2022-08-02T08:23:18.480Z,1.70
2022-08-02T08:25:46.869Z,1.50
2022-08-02T08:28:16.562Z,1.60
2022-08-02T08:30:44.953Z,1.50
2022-08-02T08:33:13.284Z,1.47
2022-08-02T08:35:41.902Z,1.60
2022-08-02T08:38:10.372Z,1.30
2022-08-02T08:40:39.082Z,1.57
2022-08-02T08:43:07.389Z,1.77
2022-08-02T08:45:37.126Z,1.43
2022-08-02T08:48:13.799Z,1.67
2022-08-02T08:50:49.453Z,1.57
2022-08-02T08:53:20.536Z,1.50
2022-08-02T08:55:50.002Z,1.30
2022-08-02T08:58:18.403Z,1.50
2022-08-02T09:00:48.791Z,1.70
2022-08-02T09:03:19.472Z,1.75
2022-08-02T09:05:48.034Z,1.65
2022-08-02T09:08:17.129Z,1.77
2022-08-02T09:10:47.962Z,1.60
2022-08-02T09:13:38.311Z,1.90
2022-08-02T09:16:13.028Z,1.55
2022-08-02T09:18:45.433Z,1.40
2022-08-02T09:21:16.357Z,1.75
2022-08-02T09:23:46.853Z,1.60
2022-08-02T09:26:17.220Z,1.60
2022-08-02T09:28:48.334Z,1.50
2022-08-02T09:31:20.102Z,1.23
2022-08-02T09:33:55.430Z,1.50
2022-08-02T09:36:25.353Z,1.52
2022-08-02T09:38:57.533Z,1.55
2022-08-02T09:41:28.615Z,1.63
2022-08-02T09:44:05.542Z,1.45
2022-08-02T09:46:38.979Z,1.25
2022-08-02T09:49:10.504Z,1.67
2022-08-02T09:51:41.692Z,1.42
2022-08-02T09:54:12.894Z,1.70
2022-08-02T09:56:44.798Z,1.25
2022-08-02T09:59:14.616Z,1.70
2022-08-02T10:01:50.838Z,1.45
2022-08-02T10:04:31.632Z,1.42
2022-08-02T10:07:04.103Z,1.40
2022-08-02T10:09:33.907Z,1.30
2022-08-02T10:12:03.325Z,1.30
2022-08-02T10:14:35.801Z,1.67
2022-08-02T10:17:06.139Z,1.27
2022-08-02T10:20:00.095Z,1.33
2022-08-02T10:22:24.241Z,1.30
2022-08-02T10:24:53.969Z,1.30
2022-08-02T10:27:25.758Z,1.02
2022-08-02T10:30:00.016Z,1.10
2022-08-02T10:32:35.309Z,1.30
2022-08-02T10:35:20.133Z,1.27
2022-08-02T10:37:57.901Z,1.13
2022-08-02T10:40:27.341Z,1.20
2022-08-02T10:43:01.007Z,1.50
2022-08-02T10:45:30.243Z,1.00
2022-08-02T10:48:06.198Z,1.35
2022-08-02T10:51:04.492Z,1.30
2022-08-02T10:53:34.923Z,1.52
2022-08-02T10:56:05.896Z,1.10
2022-08-02T10:58:37.728Z,1.40
2022-08-02T11:01:38.656Z,1.10
2022-08-02T11:04:10.758Z,0.98
2022-08-02T11:07:16.971Z,1.10
2022-08-02T11:09:46.949Z,1.10
2022-08-02T11:12:17.521Z,1.17
2022-08-02T11:14:48.394Z,1.30
2022-08-02T11:17:18.377Z,1.23
2022-08-02T11:20:23.073Z,1.30
2022-08-02T11:22:53.740Z,1.00
2022-08-02T11:26:03.138Z,1.30
2022-08-02T11:28:26.663Z,1.15
2022-08-02T11:31:03.076Z,1.20
2022-08-02T11:33:36.920Z,1.33
2022-08-02T11:36:09.347Z,1.20
2022-08-02T11:38:37.633Z,1.35
2022-08-02T11:41:09.913Z,0.90
2022-08-02T11:43:41.285Z,1.20
2022-08-02T11:46:15.579Z,0.98
2022-08-02T11:48:45.215Z,1.30
2022-08-02T11:51:17.635Z,1.30
2022-08-02T11:53:48.846Z,1.15
2022-08-02T11:56:25.116Z,1.02
2022-08-02T11:59:08.545Z,1.10
2022-08-02T12:01:46.012Z,1.10
2022-08-02T12:04:22.520Z,1.17
2022-08-02T12:07:01.212Z,1.10
2022-08-02T12:09:39.219Z,1.20
2022-08-02T12:12:09.635Z,1.00
2022-08-02T12:14:44.506Z,0.95
2022-08-02T12:17:35.549Z,1.17
2022-08-02T12:20:03.917Z,1.20
2022-08-02T12:22:41.487Z,1.20
2022-08-02T12:25:33.324Z,1.00
2022-08-02T12:28:20.460Z,1.10
2022-08-02T12:30:54.961Z,1.00
2022-08-02T12:33:24.320Z,1.20
2022-08-02T12:35:53.130Z,1.10
2022-08-02T12:38:23.410Z,1.40
2022-08-02T12:40:52.211Z,1.00
2022-08-02T12:43:23.735Z,1.17
2022-08-02T12:45:55.468Z,1.40
2022-08-02T12:48:42.773Z,1.13
2022-08-02T12:51:58.999Z,1.10
2022-08-02T12:54:24.188Z,1.20
2022-08-02T12:57:11.018Z,1.00
2022-08-02T12:59:42.174Z,1.10
2022-08-02T13:02:13.384Z,1.17
2022-08-02T13:04:50.239Z,1.10
2022-08-02T13:07:19.233Z,1.00
2022-08-02T13:09:50.155Z,1.48
2022-08-02T13:12:18.613Z,1.10
2022-08-02T13:14:46.974Z,1.35
2022-08-02T13:17:15.275Z,1.17
2022-08-02T13:19:43.621Z,1.40
2022-08-02T13:22:13.562Z,1.30
2022-08-02T13:24:56.197Z,1.10
2022-08-02T13:27:28.607Z,1.10
2022-08-02T13:29:58.610Z,1.10
2022-08-02T13:32:28.915Z,0.93
2022-08-02T13:34:59.105Z,1.20
2022-08-02T13:37:27.746Z,1.20
2022-08-02T13:40:20.049Z,1.30
2022-08-02T13:42:46.151Z,1.35
2022-08-02T13:45:14.858Z,1.10
2022-08-02T13:48:03.683Z,1.10
2022-08-02T13:50:33.663Z,0.77
2022-08-02T13:53:01.989Z,1.02
2022-08-02T13:55:30.757Z,1.02
2022-08-02T13:58:00.596Z,1.10
2022-08-02T14:00:35.387Z,1.00
2022-08-02T14:03:06.853Z,1.17
2022-08-02T14:05:47.867Z,1.00
2022-08-02T14:08:19.107Z,1.20
2022-08-02T14:10:48.571Z,1.20
2022-08-02T14:13:19.023Z,1.13
2022-08-02T14:15:48.171Z,1.20
2022-08-02T14:18:16.666Z,1.17
2022-08-02T14:20:45.829Z,1.00
2022-08-02T14:23:14.257Z,1.17
2022-08-02T14:25:42.798Z,1.30
2022-08-02T14:28:11.095Z,1.00
2022-08-02T14:30:40.932Z,1.13
2022-08-02T14:33:09.303Z,1.30
2022-08-02T14:35:37.719Z,1.20
2022-08-02T14:38:06.248Z,1.08
2022-08-02T14:40:35.013Z,1.10
2022-08-02T14:43:04.037Z,1.38
2022-08-02T14:45:39.889Z,1.05
2022-08-02T14:48:12.407Z,0.95
2022-08-02T14:50:40.944Z,1.20
2022-08-02T14:53:12.459Z,1.10
2022-08-02T14:55:42.631Z,1.45
2022-08-02T14:58:11.508Z,1.10
2022-08-02T15:00:41.417Z,1.38
2022-08-02T15:03:11.573Z,1.27
2022-08-02T15:05:39.947Z,1.20
2022-08-02T15:08:08.541Z,0.80
2022-08-02T15:10:37.017Z,1.00
2022-08-02T15:13:05.423Z,1.45
2022-08-02T15:15:43.142Z,0.93
2022-08-02T15:18:14.314Z,0.98
2022-08-02T15:20:50.082Z,1.20
2022-08-02T15:23:37.133Z,1.20
2022-08-02T15:26:06.533Z,1.08
2022-08-02T15:28:35.388Z,1.20
2022-08-02T15:31:03.927Z,1.15
2022-08-02T15:33:33.629Z,1.15
2022-08-02T15:36:01.986Z,1.23
2022-08-02T15:38:30.518Z,1.23
2022-08-02T15:40:58.872Z,1.10
2022-08-02T15:43:27.427Z,0.98
2022-08-02T15:45:55.754Z,1.30
2022-08-02T15:48:24.263Z,1.10
2022-08-02T15:50:54.077Z,1.27
2022-08-02T15:53:22.427Z,1.10
2022-08-02T15:56:04.284Z,1.33
2022-08-02T15:58:42.562Z,1.00
2022-08-02T16:01:13.162Z,1.10
2022-08-02T16:03:41.550Z,2.05
2022-08-02T16:06:11.689Z,1.60
2022-08-02T16:08:44.573Z,1.17
2022-08-02T16:11:22.430Z,1.35
2022-08-02T16:13:56.773Z,1.00
2022-08-02T16:16:29.072Z,1.35
2022-08-02T16:18:57.889Z,1.00
2022-08-02T16:21:28.169Z,1.10
2022-08-02T16:23:58.637Z,1.10
2022-08-02T16:26:31.269Z,1.13
2022-08-02T16:29:00.634Z,1.10
2022-08-02T16:31:29.095Z,1.10
2022-08-02T16:33:57.652Z,1.00
2022-08-02T16:36:28.187Z,1.15
2022-08-02T16:38:57.005Z,1.20
2022-08-02T16:41:51.371Z,1.50
2022-08-02T16:44:14.215Z,1.00
2022-08-02T16:46:45.037Z,1.02
2022-08-02T16:50:04.259Z,1.00
2022-08-02T16:52:03.713Z,1.13
2022-08-02T16:54:32.183Z,1.30
2022-08-02T16:57:00.478Z,1.15
2022-08-02T16:59:34.087Z,1.02
2022-08-02T17:02:18.007Z,1.00
2022-08-02T17:04:47.476Z,1.23
2022-08-02T17:08:10.475Z,1.50
2022-08-02T17:10:09.587Z,1.20
2022-08-02T17:12:39.204Z,1.27
2022-08-02T17:16:00.979Z,1.08
2022-08-02T17:17:58.116Z,0.98
2022-08-02T17:20:26.531Z,1.00
2022-08-02T17:22:56.637Z,1.10
2022-08-02T17:25:32.015Z,0.93
2022-08-02T17:28:01.191Z,1.38
2022-08-02T17:30:29.629Z,1.00
2022-08-02T17:32:59.461Z,1.02
2022-08-02T17:35:43.491Z,1.70
2022-08-02T17:38:26.674Z,1.10
2022-08-02T17:40:56.223Z,1.00
2022-08-02T17:43:25.960Z,1.00
2022-08-02T17:46:00.719Z,1.10
2022-08-02T17:48:55.358Z,0.95
2022-08-02T17:52:15.921Z,1.40
2022-08-02T17:54:14.327Z,1.55
2022-08-02T17:56:47.713Z,0.98
2022-08-02T17:59:20.788Z,1.23
2022-08-02T18:01:52.985Z,1.38
2022-08-02T18:04:26.851Z,1.45
2022-08-02T18:06:58.084Z,1.27
2022-08-02T18:09:28.626Z,1.05
2022-08-02T18:11:58.874Z,1.25
2022-08-02T18:14:27.287Z,1.15
2022-08-02T18:16:55.736Z,1.08
2022-08-02T18:19:42.142Z,1.30
2022-08-02T18:22:11.462Z,1.10
2022-08-02T18:24:41.687Z,1.20
2022-08-02T18:27:14.046Z,1.17
2022-08-02T18:29:42.559Z,1.00
2022-08-02T18:32:11.610Z,0.90
2022-08-02T18:34:40.664Z,1.08
2022-08-02T18:37:16.061Z,1.17
2022-08-02T18:39:51.392Z,1.20
2022-08-02T18:42:20.245Z,1.30
2022-08-02T18:44:48.618Z,1.20
2022-08-02T18:47:17.053Z,1.23
2022-08-02T18:49:47.979Z,1.25
2022-08-02T18:52:31.458Z,1.30
2022-08-02T18:55:01.486Z,2.03
2022-08-02T18:58:01.814Z,1.30
2022-08-02T19:00:20.678Z,1.27
2022-08-02T19:02:54.090Z,1.33
2022-08-02T19:05:24.352Z,1.40
2022-08-02T19:08:13.149Z,2.00
2022-08-02T19:10:49.426Z,1.50
2022-08-02T19:13:18.962Z,1.57
2022-08-02T19:15:47.887Z,1.53
2022-08-02T19:18:16.399Z,1.73
2022-08-02T19:20:48.328Z,1.50
2022-08-02T19:23:17.301Z,1.30
2022-08-02T19:25:54.633Z,1.27
2022-08-02T19:31:11.555Z,1.40
2022-08-02T19:34:05.763Z,1.80
2022-08-02T19:36:29.012Z,2.10
2022-08-02T19:38:57.405Z,2.20
2022-08-02T19:41:27.109Z,2.90
2022-08-02T19:44:25.767Z,2.60
2022-08-02T19:46:57.120Z,2.70
2022-08-02T19:49:40.393Z,3.50
2022-08-02T19:52:20.636Z,3.40
2022-08-02T19:54:55.901Z,3.00
2022-08-02T19:57:26.415Z,3.50
2022-08-02T19:59:56.920Z,2.83
2022-08-02T20:02:26.512Z,2.83
2022-08-02T20:04:55.201Z,2.40
2022-08-02T20:07:49.879Z,2.23
2022-08-02T20:10:13.599Z,1.87
2022-08-02T20:12:54.841Z,1.40
2022-08-02T20:15:23.858Z,1.87
2022-08-02T20:18:12.145Z,1.50
2022-08-02T20:20:44.109Z,1.43
2022-08-02T20:23:33.772Z,1.50
2022-08-02T20:26:02.710Z,1.40
2022-08-02T20:28:33.043Z,1.40
2022-08-02T20:31:07.026Z,1.50
2022-08-02T20:33:56.074Z,1.37
2022-08-02T20:36:24.973Z,1.43
2022-08-02T20:38:54.495Z,1.30
2022-08-02T20:41:23.961Z,1.73
2022-08-02T20:44:15.464Z,1.50
2022-08-02T20:46:45.480Z,1.80
2022-08-02T20:49:21.639Z,1.47
2022-08-02T20:52:03.222Z,1.40
2022-08-02T20:54:51.502Z,1.30
2022-08-02T20:57:19.880Z,1.80
2022-08-02T21:00:11.917Z,1.40
2022-08-02T21:02:40.758Z,1.60
2022-08-02T21:05:17.328Z,1.60
2022-08-02T21:07:47.893Z,1.43
2022-08-02T21:10:24.046Z,1.47
2022-08-02T21:12:52.571Z,1.50
2022-08-02T21:15:22.261Z,1.53
2022-08-02T21:17:59.749Z,1.50
2022-08-02T21:20:31.596Z,1.10
2022-08-02T21:22:59.934Z,1.40
2022-08-02T21:25:50.905Z,1.70
2022-08-02T21:28:17.770Z,1.50
2022-08-02T21:30:48.331Z,1.30
2022-08-02T21:33:18.190Z,1.60
2022-08-02T21:35:52.664Z,1.73
2022-08-02T21:38:35.560Z,1.63
2022-08-02T21:41:11.114Z,1.80
2022-08-02T21:43:43.932Z,1.43
2022-08-02T21:46:14.735Z,1.43
2022-08-02T21:48:43.217Z,1.60
2022-08-02T21:51:15.868Z,1.50
2022-08-02T21:54:17.437Z,1.60
2022-08-02T21:56:33.021Z,1.57
2022-08-02T21:59:04.799Z,1.47
2022-08-02T22:01:53.225Z,1.73
2022-08-02T22:04:34.932Z,1.53
2022-08-02T22:07:03.259Z,1.53
2022-08-02T22:09:42.376Z,1.70
2022-08-02T22:12:16.500Z,1.70
2022-08-02T22:14:49.754Z,1.70
2022-08-02T22:17:52.221Z,1.60
2022-08-02T22:20:19.956Z,1.70
2022-08-02T22:22:52.145Z,1.50
2022-08-02T22:25:36.022Z,1.70
2022-08-02T22:28:38.921Z,1.60
2022-08-02T22:30:58.234Z,1.80
2022-08-02T22:34:01.270Z,1.50
2022-08-02T22:36:31.498Z,1.40
2022-08-02T22:39:00.611Z,1.60
2022-08-02T22:42:01.345Z,1.40
2022-08-02T22:44:18.676Z,1.67
2022-08-02T22:46:49.969Z,1.50
2022-08-02T22:49:38.707Z,1.57
2022-08-02T22:52:08.921Z,1.40
2022-08-02T22:54:39.278Z,1.53
2022-08-02T22:57:11.404Z,1.50
2022-08-02T22:58:48.174Z,1.30
2022-08-02T22:59:41.278Z,1.70
2022-08-02T23:02:10.256Z,1.67
2022-08-02T23:04:40.072Z,1.70
2022-08-02T23:07:08.406Z,1.67
2022-08-02T23:09:36.841Z,1.77
2022-08-02T23:12:06.340Z,1.77
2022-08-02T23:14:34.621Z,1.43
2022-08-02T23:17:20.614Z,1.63
2022-08-02T23:19:53.159Z,1.40
2022-08-02T23:22:29.708Z,1.40
2022-08-02T23:25:02.400Z,1.53
2022-08-02T23:27:31.613Z,1.83
2022-08-02T23:30:00.429Z,1.57
2022-08-02T23:32:29.877Z,1.63
2022-08-02T23:34:59.959Z,2.37
2022-08-02T23:37:28.239Z,2.63
2022-08-02T23:40:16.541Z,2.43
2022-08-02T23:43:13.281Z,3.00
2022-08-02T23:45:45.441Z,3.73
2022-08-02T23:48:13.792Z,2.23
2022-08-02T23:50:43.455Z,1.63
2022-08-02T23:53:11.750Z,1.80
2022-08-02T23:55:40.049Z,3.23
2022-08-02T23:58:08.340Z,3.90
